Hovedside
METAR-TAF:

METAR-TAF

Lufthavner :

Seattle

Seattle / Tacoma, Washington, USA

breddegrad: 47-26-41N, lengdegrad: 122-18-49W, høyde over havet: 130 m

Gjeldene værobservasjon

Denne rapporten ble laget for 53 minutter siden, klokken 14:53 UTC
Vind 9 kt fra Nordøst
Temperatur 4°C
Luftfuktighet 87%
Trykk 1021 hPa
Sikt: 16.1 km
Få skyer i en høyde av 100 ft

METAR: KSEA 201453Z 04009KT 10SM FEW001 04/02 A3015 RMK AO2 SLP218 T00440017 53009

Tid: 07:46 (15:46 UTC)

Varsel

Denne rapporten ble laget for 1 time og 50 minutter siden, klokken 13:56 UTC
Varsel gyldig fra 20. klokken 14 UTC til 21. klokken 18 UTC
Vind 9 kt fra Nord
Sikt: 10 km
Få skyer i en høyde av 100 ft
Midlertidig
fra 20. klokken 14 UTC til 20. klokken 15 UTC
Sikt: 0.8 km
Brutte skyer i en høyde av 100 ft
tåke
Fra 20. klokken 1500 UTC
Vind 6 kt fra Nord-nordøst
Sikt: 10 km
Skyfri himmel

TAF: KSEA 201356Z 2014/2118 01009KT P6SM FEW001 TEMPO 2014/2015 1/2SM FG BKN001 FM201500 03006KT P6SM SKC

Værobservasjoner og værvarsel for over 4000 flyplasser (METAR- og TAF-rapporter).

Tilgjengelige stasjoner er representert av de røde og gule prikkene på kartet.

Hold musepekeren over prikken for å se navnet på stasjonen.

Klikk så for å se værobservasjoner og -varsler.

For å forandre kartet kan du klikke på den grønne knappen med svart kryss for å zoome inn, på den grønne knappen med strek for å zoome ut, eller på de grønne pilene for å se tilstøtende kart.


METAR-TAF: